Time;durP1;ratioP1;P1;durP2;ratioP2;P2;SDS_P1;SDS_P2;PMS_P1;PMS_P2;Temp;Humidity;BMP_temperature;BMP_pressure;BME280_temperature;BME280_humidity;BME280_pressure;Samples;Min_cycle;Max_cycle;Signal;HPM_P1;HPM_P2
2023/12/25 00:00:55;;;;;;;0.73;0.70;;;7.60;68.80;;;;;;2037397;29;20232;-68
2023/12/25 00:01:55;;;;;;;0.83;0.50;;;7.60;69.00;;;;;;2029570;29;20898;-68
2023/12/25 00:02:56;;;;;;;0.70;0.50;;;7.60;69.40;;;;;;2043927;28;20223;-68
2023/12/25 00:03:58;;;;;;;0.98;0.88;;;7.60;68.20;;;;;;2045395;28;20778;-68
2023/12/25 00:04:59;;;;;;;0.50;0.50;;;7.70;69.30;;;;;;2046817;28;20299;-68
2023/12/25 00:05:59;;;;;;;0.60;0.50;;;7.70;67.50;;;;;;2044606;28;20227;-68
2023/12/25 00:07:00;;;;;;;0.50;0.50;;;7.60;67.90;;;;;;2038628;29;20227;-68
2023/12/25 00:08:01;;;;;;;1.53;0.50;;;7.70;68.30;;;;;;2030101;29;20232;-68
2023/12/25 00:09:01;;;;;;;1.30;0.50;;;7.60;67.60;;;;;;2039191;28;20674;-68
2023/12/25 00:10:02;;;;;;;1.13;0.50;;;7.50;68.10;;;;;;2038248;28;20571;-68
2023/12/25 00:11:03;;;;;;;0.90;0.50;;;7.50;68.00;;;;;;2032280;29;20188;-68
2023/12/25 00:12:04;;;;;;;0.67;0.50;;;7.50;67.70;;;;;;2037224;29;20183;-68
2023/12/25 00:13:05;;;;;;;0.38;0.38;;;7.50;68.20;;;;;;2046612;28;20180;-68
2023/12/25 00:14:05;;;;;;;0.50;0.50;;;7.50;69.30;;;;;;2046192;28;20241;-68
2023/12/25 00:15:06;;;;;;;0.33;0.33;;;7.50;68.40;;;;;;2047670;28;20211;-68
2023/12/25 00:16:07;;;;;;;0.40;0.40;;;7.50;68.50;;;;;;2046053;28;20194;-68
2023/12/25 00:17:08;;;;;;;0.40;0.40;;;7.50;67.80;;;;;;2044918;28;20188;-68
2023/12/25 00:18:08;;;;;;;0.80;0.60;;;7.50;67.70;;;;;;2043178;28;20191;-68
2023/12/25 00:19:09;;;;;;;1.10;0.50;;;7.50;68.30;;;;;;2042255;28;20278;-68
2023/12/25 00:20:10;;;;;;;0.50;0.50;;;7.50;67.00;;;;;;2045435;28;20184;-68
2023/12/25 00:21:11;;;;;;;0.47;0.47;;;7.50;67.20;;;;;;2045918;28;20214;-68
2023/12/25 00:22:12;;;;;;;0.90;0.80;;;7.50;66.90;;;;;;2044852;28;20231;-68
2023/12/25 00:23:12;;;;;;;0.47;0.47;;;7.50;68.00;;;;;;2042674;28;20196;-68
2023/12/25 00:24:13;;;;;;;0.47;0.47;;;7.50;67.40;;;;;;2035308;29;20222;-68
2023/12/25 00:25:14;;;;;;;0.80;0.80;;;7.40;67.70;;;;;;2037441;28;20207;-68
2023/12/25 00:26:14;;;;;;;0.63;0.50;;;7.40;68.90;;;;;;2044419;28;20207;-68
2023/12/25 00:27:15;;;;;;;0.40;0.40;;;7.40;69.10;;;;;;2044282;28;20275;-68
2023/12/25 00:28:16;;;;;;;0.70;0.50;;;7.40;67.80;;;;;;2034276;29;20612;-68
2023/12/25 00:29:16;;;;;;;0.90;0.70;;;7.40;68.10;;;;;;2034030;29;20290;-68
2023/12/25 00:30:17;;;;;;;1.37;0.60;;;7.40;67.40;;;;;;2027464;29;20183;-68
2023/12/25 00:31:18;;;;;;;0.40;0.40;;;7.40;68.30;;;;;;2044427;28;20176;-68
2023/12/25 00:32:19;;;;;;;1.13;0.67;;;7.40;67.70;;;;;;2043520;28;20274;-68
2023/12/25 00:33:20;;;;;;;0.50;0.50;;;7.40;67.80;;;;;;2044427;28;20211;-68
2023/12/25 00:34:21;;;;;;;1.27;0.60;;;7.40;68.90;;;;;;2045732;28;20239;-68
2023/12/25 00:35:21;;;;;;;0.77;0.60;;;7.30;69.30;;;;;;2047012;28;20234;-68
2023/12/25 00:36:22;;;;;;;1.07;0.50;;;7.30;69.30;;;;;;2044456;28;20234;-68
2023/12/25 00:37:23;;;;;;;0.87;0.63;;;7.30;69.80;;;;;;2042782;28;20739;-68
2023/12/25 00:38:24;;;;;;;0.47;0.47;;;7.30;68.70;;;;;;2044080;28;20465;-68
2023/12/25 00:39:25;;;;;;;0.50;0.50;;;7.30;69.80;;;;;;2045228;28;20237;-68
2023/12/25 00:40:25;;;;;;;0.50;0.50;;;7.20;69.30;;;;;;2044806;28;20361;-68
2023/12/25 00:41:30;;;;;;;1.03;0.43;;;7.20;70.00;;;;;;2044049;28;20923;-68
2023/12/25 00:42:31;;;;;;;1.30;0.50;;;7.20;69.30;;;;;;2043255;28;20234;-68
2023/12/25 00:43:31;;;;;;;0.50;0.50;;;7.30;68.10;;;;;;2048158;28;20265;-68
2023/12/25 00:44:32;;;;;;;2.10;0.60;;;7.30;68.40;;;;;;2048232;28;20223;-68
2023/12/25 00:45:33;;;;;;;1.37;1.00;;;7.40;67.00;;;;;;2044982;28;20301;-67
2023/12/25 00:46:33;;;;;;;0.73;0.50;;;7.40;67.00;;;;;;2044176;28;20237;-68
2023/12/25 00:47:34;;;;;;;0.50;0.50;;;7.40;65.70;;;;;;2043214;28;20231;-68
2023/12/25 00:48:35;;;;;;;0.93;0.60;;;7.40;66.00;;;;;;2045760;28;20231;-68
2023/12/25 00:49:35;;;;;;;0.97;0.50;;;7.40;66.10;;;;;;2049010;28;20239;-68
2023/12/25 00:50:36;;;;;;;0.60;0.60;;;7.40;66.00;;;;;;2048379;28;20242;-68
2023/12/25 00:51:37;;;;;;;1.03;0.70;;;7.50;65.10;;;;;;2046159;28;20236;-68
2023/12/25 00:52:37;;;;;;;0.90;0.83;;;7.50;64.40;;;;;;2044498;28;20231;-68
2023/12/25 00:53:38;;;;;;;4.10;0.60;;;7.50;64.80;;;;;;2051744;28;20239;-68
2023/12/25 00:54:39;;;;;;;2.60;0.60;;;7.60;65.00;;;;;;2046431;28;20739;-68
2023/12/25 00:55:40;;;;;;;0.60;0.60;;;7.50;65.20;;;;;;2045761;28;20282;-68
2023/12/25 00:56:41;;;;;;;1.87;1.50;;;7.50;65.30;;;;;;2047612;28;20239;-68
2023/12/25 00:57:41;;;;;;;1.50;0.83;;;7.50;64.80;;;;;;2048459;28;20266;-68
2023/12/25 00:58:42;;;;;;;1.10;0.90;;;7.50;65.00;;;;;;2043803;28;20325;-68
2023/12/25 00:59:43;;;;;;;0.60;0.60;;;7.50;64.70;;;;;;2048647;28;20593;-68
2023/12/25 01:00:43;;;;;;;0.70;0.40;;;7.50;64.00;;;;;;2055420;28;20322;-67
2023/12/25 01:01:44;;;;;;;1.00;0.60;;;7.50;64.30;;;;;;2054184;28;20278;-68
2023/12/25 01:02:45;;;;;;;0.80;0.43;;;7.60;63.70;;;;;;2045390;28;20271;-68
2023/12/25 01:03:45;;;;;;;0.60;0.60;;;7.60;63.60;;;;;;2051560;28;20306;-68
2023/12/25 01:04:46;;;;;;;0.70;0.60;;;7.50;63.40;;;;;;2042016;28;20332;-68
2023/12/25 01:05:46;;;;;;;0.77;0.70;;;7.50;63.40;;;;;;2039812;29;20760;-68
2023/12/25 01:06:47;;;;;;;0.90;0.90;;;7.50;63.60;;;;;;2040077;28;20275;-68
2023/12/25 01:07:49;;;;;;;1.23;0.60;;;7.50;63.70;;;;;;2044508;28;20243;-68
2023/12/25 01:08:49;;;;;;;0.40;0.40;;;7.60;63.50;;;;;;2048469;28;20227;-68
2023/12/25 01:09:50;;;;;;;1.90;0.60;;;7.60;64.00;;;;;;2050404;28;20238;-68
2023/12/25 01:10:51;;;;;;;0.90;0.60;;;7.50;63.80;;;;;;2048404;28;20303;-68
2023/12/25 01:11:52;;;;;;;0.50;0.50;;;7.50;63.30;;;;;;2041889;28;20243;-68
2023/12/25 01:12:52;;;;;;;0.85;0.50;;;7.60;63.50;;;;;;2045541;28;20238;-68
2023/12/25 01:13:53;;;;;;;1.13;0.83;;;7.50;64.30;;;;;;2051383;28;20234;-68
2023/12/25 01:14:54;;;;;;;0.47;0.47;;;7.50;64.70;;;;;;2050643;28;20227;-68
2023/12/25 01:15:54;;;;;;;0.47;0.43;;;7.50;64.70;;;;;;2047903;28;20235;-68
2023/12/25 01:16:55;;;;;;;0.53;0.50;;;7.40;64.50;;;;;;2047860;28;20232;-68
2023/12/25 01:17:56;;;;;;;0.40;0.40;;;7.40;63.60;;;;;;2044851;28;20223;-67
2023/12/25 01:18:56;;;;;;;0.70;0.50;;;7.40;63.80;;;;;;2047550;28;20311;-68
2023/12/25 01:19:57;;;;;;;0.40;0.40;;;7.40;64.20;;;;;;2049657;28;20258;-68
2023/12/25 01:20:58;;;;;;;0.30;0.30;;;7.40;64.10;;;;;;2039783;29;20307;-68
2023/12/25 01:21:58;;;;;;;0.50;0.50;;;7.40;65.50;;;;;;2037426;29;20323;-68
2023/12/25 01:22:59;;;;;;;0.77;0.60;;;7.30;64.40;;;;;;2047940;28;20745;-68
2023/12/25 01:24:00;;;;;;;0.40;0.40;;;7.40;64.00;;;;;;2046961;28;20311;-68
2023/12/25 01:25:00;;;;;;;0.70;0.50;;;7.30;63.70;;;;;;2046314;28;20227;-68
2023/12/25 01:26:01;;;;;;;0.43;0.43;;;7.40;62.90;;;;;;2046249;28;20275;-68
2023/12/25 01:27:02;;;;;;;1.50;0.40;;;7.40;62.50;;;;;;2044471;28;20195;-68
2023/12/25 01:28:03;;;;;;;0.40;0.40;;;7.40;62.80;;;;;;2047495;28;20190;-68
2023/12/25 01:29:03;;;;;;;0.50;0.50;;;7.40;62.80;;;;;;2049808;28;20270;-67
2023/12/25 01:30:05;;;;;;;2.27;0.57;;;7.40;62.50;;;;;;2047564;28;20190;-68
2023/12/25 01:31:06;;;;;;;0.52;0.52;;;7.40;62.40;;;;;;2046111;28;20675;-67
2023/12/25 01:32:07;;;;;;;0.80;0.60;;;7.40;61.90;;;;;;2045168;28;20238;-68
2023/12/25 01:33:07;;;;;;;0.90;0.60;;;7.40;62.40;;;;;;2047976;28;20270;-67
2023/12/25 01:34:08;;;;;;;0.77;0.57;;;7.40;61.70;;;;;;2049631;28;20186;-68
2023/12/25 01:35:09;;;;;;;0.50;0.50;;;7.40;62.00;;;;;;2046134;28;20183;-68
2023/12/25 01:36:10;;;;;;;3.03;0.77;;;7.40;61.70;;;;;;2044915;28;20195;-68
2023/12/25 01:37:11;;;;;;;0.60;0.60;;;7.40;61.90;;;;;;2044328;28;20194;-68
2023/12/25 01:38:11;;;;;;;0.57;0.50;;;7.40;62.50;;;;;;2044187;28;20242;-68
2023/12/25 01:39:12;;;;;;;0.40;0.40;;;7.40;62.80;;;;;;2046472;28;20188;-68
2023/12/25 01:40:14;;;;;;;0.50;0.50;;;7.30;62.60;;;;;;2047591;28;20266;-68
2023/12/25 01:41:15;;;;;;;0.85;0.40;;;7.30;63.20;;;;;;2041216;29;20587;-68
2023/12/25 01:42:16;;;;;;;0.73;0.50;;;7.20;63.60;;;;;;2047970;28;20196;-68
2023/12/25 01:43:16;;;;;;;0.60;0.57;;;7.30;62.70;;;;;;2040017;29;20196;-68
2023/12/25 01:44:17;;;;;;;0.40;0.40;;;7.30;62.90;;;;;;2038408;29;20200;-68
2023/12/25 01:45:18;;;;;;;1.07;0.50;;;7.30;62.80;;;;;;2045541;28;20735;-68
2023/12/25 01:46:18;;;;;;;0.57;0.40;;;7.30;63.50;;;;;;2044970;28;20192;-68
2023/12/25 01:47:20;;;;;;;0.43;0.43;;;7.20;62.80;;;;;;2044208;28;20179;-69
2023/12/25 01:48:24;;;;;;;0.55;0.55;;;7.20;62.40;;;;;;2045965;28;20239;-68
2023/12/25 01:49:25;;;;;;;0.45;0.45;;;7.30;62.40;;;;;;2039333;29;20263;-69
2023/12/25 01:50:27;;;;;;;0.43;0.40;;;7.30;62.50;;;;;;2041466;29;20265;-69
2023/12/25 01:51:28;;;;;;;0.45;0.40;;;7.30;62.10;;;;;;2044218;28;20231;-69
2023/12/25 01:52:29;;;;;;;0.80;0.50;;;7.30;62.50;;;;;;2043633;28;20224;-68
2023/12/25 01:53:29;;;;;;;0.53;0.50;;;7.30;62.70;;;;;;2050050;28;20675;-68
2023/12/25 01:54:32;;;;;;;0.97;0.60;;;7.30;61.50;;;;;;2046214;28;20255;-69
2023/12/25 01:55:34;;;;;;;0.98;0.50;;;7.30;61.90;;;;;;2047051;28;20290;-69
2023/12/25 01:56:35;;;;;;;0.52;0.50;;;7.20;61.60;;;;;;2045326;28;20369;-68
2023/12/25 01:57:36;;;;;;;1.07;0.70;;;7.30;61.60;;;;;;2044110;28;20693;-68
2023/12/25 01:58:36;;;;;;;0.70;0.50;;;7.20;61.60;;;;;;2049240;28;20325;-68
2023/12/25 01:59:38;;;;;;;0.50;0.50;;;7.20;61.80;;;;;;2047400;28;20235;-68
2023/12/25 02:00:39;;;;;;;0.40;0.40;;;7.30;60.30;;;;;;2044891;28;20223;-69
2023/12/25 02:01:39;;;;;;;0.60;0.50;;;7.30;60.20;;;;;;2044481;28;20659;-68
2023/12/25 02:02:40;;;;;;;0.50;0.40;;;7.40;59.90;;;;;;2043338;28;20232;-68
2023/12/25 02:03:41;;;;;;;0.70;0.60;;;7.30;60.80;;;;;;2047885;28;20234;-68
2023/12/25 02:04:42;;;;;;;0.40;0.40;;;7.20;60.20;;;;;;2048392;28;20310;-68
2023/12/25 02:05:43;;;;;;;0.30;0.30;;;7.30;60.10;;;;;;2044891;28;20232;-68
2023/12/25 02:06:43;;;;;;;0.52;0.40;;;7.30;60.20;;;;;;2042484;28;20716;-68
2023/12/25 02:07:46;;;;;;;0.80;0.50;;;7.40;60.30;;;;;;2040042;28;20235;-68
2023/12/25 02:08:46;;;;;;;1.52;0.50;;;7.40;61.10;;;;;;2048449;28;20291;-68
2023/12/25 02:09:48;;;;;;;0.40;0.40;;;7.30;60.10;;;;;;2046817;28;20254;-68
2023/12/25 02:10:49;;;;;;;0.90;0.55;;;7.30;59.70;;;;;;2044498;28;20239;-68
2023/12/25 02:11:49;;;;;;;0.50;0.50;;;7.30;59.90;;;;;;2047798;28;20227;-69
2023/12/25 02:12:50;;;;;;;0.60;0.50;;;7.30;60.10;;;;;;2041199;28;20228;-68
2023/12/25 02:13:51;;;;;;;0.80;0.60;;;7.30;60.10;;;;;;2047227;28;20227;-68
2023/12/25 02:14:51;;;;;;;0.50;0.50;;;7.30;59.40;;;;;;2047203;28;20326;-68
2023/12/25 02:15:52;;;;;;;2.40;0.60;;;7.30;59.40;;;;;;2045803;28;20236;-68
2023/12/25 02:16:53;;;;;;;0.60;0.50;;;7.30;59.40;;;;;;2044758;28;20377;-69
2023/12/25 02:17:54;;;;;;;1.42;0.52;;;7.40;59.90;;;;;;2049247;28;20262;-68
2023/12/25 02:18:55;;;;;;;0.40;0.40;;;7.40;59.20;;;;;;2047263;28;20231;-68
2023/12/25 02:19:57;;;;;;;0.85;0.57;;;7.40;59.30;;;;;;2048179;28;20704;-68
2023/12/25 02:20:58;;;;;;;1.00;0.55;;;7.40;59.30;;;;;;2047197;28;20707;-69
2023/12/25 02:21:59;;;;;;;0.40;0.40;;;7.40;60.00;;;;;;2048238;28;20318;-68
2023/12/25 02:23:06;;;;;;;0.68;0.50;;;7.30;60.30;;;;;;2050001;28;20234;-69
2023/12/25 02:24:12;;;;;;;0.80;0.50;;;7.30;60.60;;;;;;2043814;28;20215;-69
2023/12/25 02:25:46;;;;;;;1.30;0.60;;;7.30;60.00;;;;;;2039023;29;20613;-69
2023/12/25 02:26:46;;;;;;;0.50;0.50;;;7.30;59.10;;;;;;2046715;28;20247;-69
2023/12/25 02:27:47;;;;;;;1.10;0.70;;;7.30;59.50;;;;;;2050615;28;20301;-68
2023/12/25 02:28:48;;;;;;;1.13;0.50;;;7.30;59.80;;;;;;2048889;28;20227;-68
2023/12/25 02:29:48;;;;;;;0.67;0.40;;;7.30;59.50;;;;;;2046951;28;20239;-68
2023/12/25 02:30:49;;;;;;;1.67;0.60;;;7.30;60.10;;;;;;2039448;29;20228;-68
2023/12/25 02:31:50;;;;;;;0.87;0.40;;;7.30;58.80;;;;;;2039133;29;20319;-68
2023/12/25 02:32:51;;;;;;;0.70;0.50;;;7.40;59.10;;;;;;2049278;28;20266;-68
2023/12/25 02:33:51;;;;;;;0.50;0.50;;;7.30;60.00;;;;;;2048542;28;20243;-68
2023/12/25 02:34:52;;;;;;;1.03;0.50;;;7.20;59.40;;;;;;2045876;28;20235;-68
2023/12/25 02:35:53;;;;;;;1.13;0.90;;;7.20;59.50;;;;;;2047034;28;20614;-68
2023/12/25 02:36:53;;;;;;;0.53;0.50;;;7.20;59.50;;;;;;2047278;28;20657;-68
2023/12/25 02:37:54;;;;;;;0.90;0.60;;;7.20;59.40;;;;;;2047427;28;20223;-68
2023/12/25 02:38:55;;;;;;;0.83;0.50;;;7.20;59.00;;;;;;2048373;28;20223;-68
2023/12/25 02:39:55;;;;;;;0.50;0.50;;;7.20;58.40;;;;;;2047177;28;20608;-68
2023/12/25 02:40:56;;;;;;;0.50;0.50;;;7.30;58.50;;;;;;2043842;28;20228;-68
2023/12/25 02:41:57;;;;;;;0.50;0.40;;;7.20;59.10;;;;;;2044879;28;20248;-68
2023/12/25 02:42:57;;;;;;;0.97;0.53;;;7.30;59.20;;;;;;2050397;28;20278;-68
2023/12/25 02:43:58;;;;;;;0.60;0.50;;;7.20;59.10;;;;;;2039266;28;20627;-68
2023/12/25 02:44:59;;;;;;;0.60;0.60;;;7.20;59.00;;;;;;2038752;29;20232;-68
2023/12/25 02:45:59;;;;;;;0.43;0.43;;;7.20;59.30;;;;;;2046703;28;20835;-68
2023/12/25 02:47:00;;;;;;;0.40;0.40;;;7.20;58.90;;;;;;2043675;28;20220;-68
2023/12/25 02:48:01;;;;;;;0.50;0.50;;;7.20;59.10;;;;;;2045725;28;20215;-67
2023/12/25 02:49:02;;;;;;;0.53;0.53;;;7.20;58.20;;;;;;2044500;28;20248;-68
2023/12/25 02:50:03;;;;;;;0.90;0.50;;;7.20;58.00;;;;;;2044869;28;20193;-68
2023/12/25 02:51:04;;;;;;;0.60;0.50;;;7.20;58.00;;;;;;2042698;28;21677;-68
2023/12/25 02:52:04;;;;;;;3.50;0.60;;;7.20;58.40;;;;;;2045505;28;20195;-68
2023/12/25 02:53:05;;;;;;;1.20;0.60;;;7.20;57.70;;;;;;2041202;28;20235;-69
2023/12/25 02:54:06;;;;;;;0.77;0.60;;;7.20;57.30;;;;;;2040170;28;20194;-68
2023/12/25 02:55:07;;;;;;;0.80;0.40;;;7.20;57.80;;;;;;2045979;28;20231;-68
2023/12/25 02:56:07;;;;;;;0.40;0.40;;;7.30;57.00;;;;;;2052037;28;20199;-68
2023/12/25 02:57:08;;;;;;;1.63;0.67;;;7.20;57.70;;;;;;2045445;28;20195;-69
2023/12/25 02:58:09;;;;;;;1.67;0.60;;;7.20;58.00;;;;;;2042944;28;20609;-68
2023/12/25 02:59:09;;;;;;;0.40;0.40;;;7.20;57.90;;;;;;2045256;28;20199;-68
2023/12/25 03:00:11;;;;;;;0.60;0.53;;;7.20;58.30;;;;;;2045003;28;20187;-68
2023/12/25 03:01:12;;;;;;;0.50;0.50;;;7.20;58.40;;;;;;2035369;28;20203;-68
2023/12/25 03:02:13;;;;;;;0.55;0.55;;;7.10;57.70;;;;;;2026966;29;20192;-69
2023/12/25 03:03:13;;;;;;;1.03;0.40;;;7.20;57.60;;;;;;2037164;29;20192;-68
2023/12/25 03:04:14;;;;;;;0.40;0.40;;;7.10;57.50;;;;;;2044879;28;20258;-68
2023/12/25 03:05:15;;;;;;;0.30;0.30;;;7.20;57.90;;;;;;2044313;28;20216;-68
2023/12/25 03:06:15;;;;;;;0.40;0.40;;;7.10;57.90;;;;;;2042817;28;20266;-68
2023/12/25 03:07:16;;;;;;;0.87;0.50;;;7.10;57.70;;;;;;2046048;28;20206;-68
2023/12/25 03:08:17;;;;;;;0.53;0.53;;;7.10;58.30;;;;;;2040836;28;20633;-68
2023/12/25 03:09:18;;;;;;;0.40;0.40;;;7.10;57.90;;;;;;2047495;28;20229;-68
2023/12/25 03:10:19;;;;;;;0.40;0.40;;;7.10;57.90;;;;;;2046330;28;20195;-68
2023/12/25 03:11:20;;;;;;;0.40;0.40;;;7.10;57.50;;;;;;2042046;28;20633;-68
2023/12/25 03:12:20;;;;;;;0.70;0.50;;;7.10;57.70;;;;;;2038627;28;20654;-68
2023/12/25 03:13:21;;;;;;;0.60;0.50;;;7.10;57.90;;;;;;2043590;28;20239;-68
2023/12/25 03:14:22;;;;;;;0.43;0.40;;;7.00;57.50;;;;;;2044076;28;20268;-68
2023/12/25 03:15:23;;;;;;;0.53;0.40;;;7.10;57.70;;;;;;2035283;28;20235;-68
2023/12/25 03:16:23;;;;;;;0.87;0.57;;;7.10;57.00;;;;;;2042284;28;20243;-68
2023/12/25 03:17:24;;;;;;;0.30;0.30;;;7.10;57.20;;;;;;2043516;28;20227;-68
2023/12/25 03:18:25;;;;;;;0.50;0.40;;;7.10;57.50;;;;;;2044734;28;20699;-68
2023/12/25 03:19:25;;;;;;;0.40;0.40;;;7.10;57.40;;;;;;2043937;28;20235;-68
2023/12/25 03:20:26;;;;;;;0.40;0.40;;;7.10;57.40;;;;;;2044024;28;20231;-68
2023/12/25 03:21:27;;;;;;;0.53;0.50;;;7.00;57.20;;;;;;2042614;28;20773;-68
2023/12/25 03:22:27;;;;;;;0.60;0.40;;;7.00;57.50;;;;;;2045294;28;20322;-68
2023/12/25 03:23:28;;;;;;;0.50;0.50;;;7.00;56.10;;;;;;2045053;28;20321;-68
2023/12/25 03:24:29;;;;;;;0.53;0.50;;;7.00;56.30;;;;;;2043612;28;20224;-68
2023/12/25 03:25:29;;;;;;;0.30;0.30;;;7.00;56.40;;;;;;2042518;28;20328;-68
2023/12/25 03:26:30;;;;;;;0.40;0.40;;;7.00;56.60;;;;;;2042394;28;20625;-68
2023/12/25 03:27:30;;;;;;;0.40;0.40;;;7.10;56.00;;;;;;2045480;28;20275;-68
2023/12/25 03:28:31;;;;;;;0.50;0.50;;;7.10;56.30;;;;;;2045736;28;20649;-68
2023/12/25 03:29:32;;;;;;;0.60;0.60;;;7.10;55.70;;;;;;2044339;28;20329;-68
2023/12/25 03:30:32;;;;;;;0.40;0.40;;;7.10;55.40;;;;;;2049909;28;20238;-69
2023/12/25 03:31:33;;;;;;;0.60;0.50;;;7.10;55.50;;;;;;2041565;28;20322;-68
2023/12/25 03:32:34;;;;;;;0.80;0.40;;;7.10;55.30;;;;;;2037390;29;20232;-68
2023/12/25 03:33:36;;;;;;;0.40;0.40;;;7.10;54.50;;;;;;2035673;29;20322;-69
2023/12/25 03:34:49;;;;;;;0.50;0.50;;;7.10;54.40;;;;;;2037064;29;20736;-68
2023/12/25 03:35:50;;;;;;;0.47;0.40;;;7.10;55.10;;;;;;2035964;28;20231;-68
2023/12/25 03:36:50;;;;;;;1.03;0.53;;;7.10;54.60;;;;;;2042573;28;20239;-68
2023/12/25 03:37:51;;;;;;;0.40;0.40;;;7.10;54.90;;;;;;2044293;28;20238;-68
2023/12/25 03:38:52;;;;;;;0.40;0.40;;;7.10;54.80;;;;;;2036305;29;20254;-68
2023/12/25 03:39:52;;;;;;;0.63;0.50;;;7.10;54.90;;;;;;2042386;28;20243;-67
2023/12/25 03:40:53;;;;;;;0.40;0.40;;;7.10;54.50;;;;;;2042399;28;20748;-68
2023/12/25 03:41:54;;;;;;;0.70;0.50;;;7.10;54.50;;;;;;2044738;28;20662;-68
2023/12/25 03:42:54;;;;;;;0.50;0.50;;;7.10;54.50;;;;;;2045717;28;20235;-68
2023/12/25 03:43:55;;;;;;;0.40;0.40;;;7.10;55.10;;;;;;2037493;28;20256;-68
2023/12/25 03:44:55;;;;;;;0.40;0.40;;;7.00;54.90;;;;;;2037821;28;20332;-68
2023/12/25 03:45:57;;;;;;;0.50;0.50;;;7.00;55.10;;;;;;2037857;29;20228;-68
2023/12/25 03:46:58;;;;;;;0.50;0.50;;;7.00;55.60;;;;;;2037602;29;20228;-68
2023/12/25 03:47:58;;;;;;;0.40;0.40;;;6.90;55.80;;;;;;2037455;29;20753;-68
2023/12/25 03:48:59;;;;;;;0.37;0.37;;;6.90;55.60;;;;;;2045026;28;20231;-69
2023/12/25 03:49:59;;;;;;;2.00;0.60;;;6.90;55.50;;;;;;2043715;28;20275;-68
2023/12/25 03:51:00;;;;;;;1.00;0.50;;;6.90;55.80;;;;;;2042794;28;20224;-68
2023/12/25 03:52:02;;;;;;;0.50;0.50;;;6.90;54.50;;;;;;2042609;28;21149;-68
2023/12/25 03:53:03;;;;;;;0.40;0.40;;;6.90;54.50;;;;;;2044202;28;20248;-69
2023/12/25 03:54:03;;;;;;;0.70;0.50;;;7.00;54.60;;;;;;2044183;28;20656;-68
2023/12/25 03:55:04;;;;;;;0.40;0.40;;;7.00;55.10;;;;;;2043447;28;20210;-68
2023/12/25 03:56:06;;;;;;;0.38;0.38;;;6.90;54.70;;;;;;2043440;28;20195;-68
2023/12/25 03:57:08;;;;;;;0.90;0.40;;;7.00;55.30;;;;;;2045259;28;20678;-68
2023/12/25 03:58:08;;;;;;;0.55;0.50;;;6.90;54.40;;;;;;2045964;28;20203;-68
2023/12/25 03:59:09;;;;;;;0.40;0.40;;;6.90;54.70;;;;;;2037502;29;20275;-68
2023/12/25 04:00:10;;;;;;;0.53;0.53;;;6.90;55.40;;;;;;2043246;28;20246;-68
2023/12/25 04:01:11;;;;;;;0.50;0.50;;;6.90;55.30;;;;;;2043492;28;20194;-68
2023/12/25 04:02:12;;;;;;;0.53;0.53;;;6.90;55.40;;;;;;2042768;28;20676;-68
2023/12/25 04:03:13;;;;;;;0.57;0.40;;;6.90;54.90;;;;;;2045516;28;20195;-68
2023/12/25 04:04:13;;;;;;;0.60;0.60;;;6.90;54.80;;;;;;2045164;28;20437;-68
2023/12/25 04:05:14;;;;;;;0.40;0.40;;;6.80;54.80;;;;;;2037678;29;20212;-68
2023/12/25 04:06:27;;;;;;;2.10;0.60;;;6.80;55.30;;;;;;2045271;28;20249;-68
2023/12/25 04:07:27;;;;;;;1.38;0.50;;;6.80;55.00;;;;;;2045856;28;20246;-68
2023/12/25 04:08:28;;;;;;;0.80;0.43;;;6.90;55.60;;;;;;2036317;29;20223;-68
2023/12/25 04:09:29;;;;;;;0.60;0.60;;;6.80;55.80;;;;;;2043049;28;20736;-68
2023/12/25 04:10:29;;;;;;;0.67;0.40;;;6.80;55.80;;;;;;2041967;28;20230;-68
2023/12/25 04:11:30;;;;;;;0.40;0.40;;;6.80;56.00;;;;;;2044196;28;20274;-68
2023/12/25 04:12:31;;;;;;;0.50;0.50;;;6.80;56.00;;;;;;2045216;28;20231;-68
2023/12/25 04:13:32;;;;;;;0.40;0.40;;;6.80;55.50;;;;;;2044327;28;20238;-68
2023/12/25 04:14:38;;;;;;;0.90;0.80;;;6.70;55.70;;;;;;2045286;28;20311;-68
2023/12/25 04:15:38;;;;;;;0.40;0.40;;;6.70;55.40;;;;;;2034506;29;20243;-68
2023/12/25 04:16:39;;;;;;;0.77;0.40;;;6.70;56.00;;;;;;2029060;29;20221;-68
2023/12/25 04:17:40;;;;;;;0.77;0.50;;;6.60;56.20;;;;;;2044197;28;20675;-68
2023/12/25 04:18:40;;;;;;;0.73;0.50;;;6.60;56.30;;;;;;2043174;28;20234;-68
2023/12/25 04:19:42;;;;;;;0.77;0.50;;;6.70;56.60;;;;;;2042291;28;20291;-68
2023/12/25 04:20:42;;;;;;;0.40;0.40;;;6.70;55.90;;;;;;2046030;28;20231;-69
2023/12/25 04:21:43;;;;;;;0.40;0.40;;;6.70;56.00;;;;;;2045845;28;20647;-68
2023/12/25 04:22:44;;;;;;;0.40;0.40;;;6.70;55.60;;;;;;2045336;28;20227;-68
2023/12/25 04:23:44;;;;;;;0.40;0.40;;;6.60;56.00;;;;;;2045297;28;20227;-69
2023/12/25 04:24:45;;;;;;;0.40;0.40;;;6.70;56.50;;;;;;2045986;28;20242;-69
2023/12/25 04:25:46;;;;;;;0.50;0.50;;;6.60;56.20;;;;;;2045456;28;20235;-68
2023/12/25 04:26:46;;;;;;;0.43;0.43;;;6.60;55.90;;;;;;2045764;28;20235;-68
2023/12/25 04:27:47;;;;;;;0.50;0.50;;;6.70;55.90;;;;;;2045594;28;20303;-68
2023/12/25 04:28:49;;;;;;;0.53;0.53;;;6.70;56.40;;;;;;2045823;28;20238;-68
2023/12/25 04:29:50;;;;;;;0.70;0.70;;;6.70;55.70;;;;;;2037982;29;20724;-68
2023/12/25 04:30:50;;;;;;;0.63;0.60;;;6.70;56.00;;;;;;2042714;28;20322;-69
2023/12/25 04:31:51;;;;;;;0.73;0.50;;;6.70;56.80;;;;;;2046145;28;20330;-68
2023/12/25 04:32:52;;;;;;;1.53;0.67;;;6.60;56.00;;;;;;2046125;28;20585;-68
2023/12/25 04:33:53;;;;;;;0.50;0.50;;;6.60;56.30;;;;;;2044005;28;20315;-68
2023/12/25 04:34:54;;;;;;;0.82;0.50;;;6.60;56.50;;;;;;2043400;28;20240;-68
2023/12/25 04:35:54;;;;;;;0.40;0.40;;;6.60;56.40;;;;;;2045760;28;20245;-68
2023/12/25 04:36:55;;;;;;;0.40;0.40;;;6.60;55.50;;;;;;2045621;28;20616;-68
2023/12/25 04:37:56;;;;;;;1.07;0.60;;;6.60;56.30;;;;;;2045820;28;20231;-68
2023/12/25 04:38:58;;;;;;;0.40;0.40;;;6.60;56.30;;;;;;2045896;28;20278;-68
2023/12/25 04:39:59;;;;;;;0.50;0.50;;;6.60;56.20;;;;;;2042851;28;20239;-68
2023/12/25 04:41:00;;;;;;;1.20;0.47;;;6.60;55.60;;;;;;2042954;28;20247;-68
2023/12/25 04:42:02;;;;;;;2.05;0.68;;;6.60;55.70;;;;;;2046479;28;20314;-69
2023/12/25 04:43:02;;;;;;;0.40;0.40;;;6.60;55.20;;;;;;2036760;29;20657;-68
2023/12/25 04:44:03;;;;;;;1.23;0.60;;;6.60;55.30;;;;;;2044000;28;20200;-68
2023/12/25 04:45:05;;;;;;;0.73;0.60;;;6.60;56.80;;;;;;2034385;29;20192;-67
2023/12/25 04:46:05;;;;;;;0.70;0.57;;;6.60;55.50;;;;;;2042764;28;20188;-68
2023/12/25 04:47:06;;;;;;;0.50;0.50;;;6.60;55.60;;;;;;2045271;28;20703;-68
2023/12/25 04:48:07;;;;;;;0.80;0.67;;;6.60;55.70;;;;;;2037759;29;20211;-68
2023/12/25 04:49:07;;;;;;;0.40;0.40;;;6.50;55.60;;;;;;2034972;29;20180;-68
2023/12/25 04:50:08;;;;;;;0.90;0.90;;;6.60;55.50;;;;;;2042091;28;20683;-68
2023/12/25 04:51:09;;;;;;;0.73;0.50;;;6.50;55.20;;;;;;2042232;28;20190;-68
2023/12/25 04:52:10;;;;;;;0.80;0.70;;;6.60;55.30;;;;;;2046517;28;20211;-67
2023/12/25 04:53:11;;;;;;;0.50;0.50;;;6.60;54.70;;;;;;2044450;28;20187;-69
2023/12/25 04:54:11;;;;;;;0.50;0.50;;;6.60;54.50;;;;;;2045574;28;20641;-68
2023/12/25 04:55:12;;;;;;;0.67;0.50;;;6.70;54.60;;;;;;2037408;29;20193;-68
2023/12/25 04:56:13;;;;;;;0.53;0.53;;;6.60;54.60;;;;;;2044843;28;20275;-68
2023/12/25 04:57:13;;;;;;;0.67;0.60;;;6.60;54.80;;;;;;2036287;28;20203;-68
2023/12/25 04:58:14;;;;;;;0.47;0.47;;;6.60;55.60;;;;;;2035594;29;20247;-68
2023/12/25 04:59:15;;;;;;;0.90;0.70;;;6.50;55.30;;;;;;2035145;29;20188;-68
2023/12/25 05:00:16;;;;;;;0.55;0.52;;;6.50;55.10;;;;;;2042070;28;20735;-68
2023/12/25 05:01:17;;;;;;;0.77;0.57;;;6.50;55.20;;;;;;2043125;28;20179;-68
2023/12/25 05:02:17;;;;;;;0.63;0.60;;;6.50;55.50;;;;;;2045122;28;20198;-68
2023/12/25 05:03:19;;;;;;;0.40;0.40;;;6.40;55.90;;;;;;2042940;28;20194;-68
2023/12/25 05:04:20;;;;;;;0.85;0.60;;;6.40;55.80;;;;;;2042859;28;20752;-68
2023/12/25 05:05:20;;;;;;;0.50;0.50;;;6.50;55.20;;;;;;2049443;28;20251;-68
2023/12/25 05:06:21;;;;;;;0.70;0.63;;;6.50;55.00;;;;;;2050960;28;20373;-68
2023/12/25 05:07:22;;;;;;;0.40;0.40;;;6.40;55.40;;;;;;2052143;28;20314;-68
2023/12/25 05:08:23;;;;;;;0.63;0.60;;;6.40;55.40;;;;;;2043843;28;20234;-68
2023/12/25 05:09:23;;;;;;;1.63;0.50;;;6.40;55.30;;;;;;2033929;29;20299;-68
2023/12/25 05:10:24;;;;;;;0.60;0.60;;;6.40;55.00;;;;;;2033661;29;21054;-68
2023/12/25 05:11:25;;;;;;;0.43;0.43;;;6.50;54.90;;;;;;2044032;28;20301;-68
2023/12/25 05:12:25;;;;;;;1.33;0.50;;;6.50;54.70;;;;;;2045716;28;20269;-68
2023/12/25 05:13:26;;;;;;;0.40;0.40;;;6.50;54.70;;;;;;2045382;28;20227;-68
2023/12/25 05:14:26;;;;;;;0.50;0.50;;;6.50;54.80;;;;;;2037916;28;20341;-68
2023/12/25 05:15:28;;;;;;;0.60;0.60;;;6.50;54.80;;;;;;2045958;28;20877;-68
2023/12/25 05:16:28;;;;;;;0.60;0.60;;;6.50;54.10;;;;;;2045546;28;20235;-68
2023/12/25 05:17:29;;;;;;;0.50;0.50;;;6.50;54.00;;;;;;2044352;28;20255;-68
2023/12/25 05:18:30;;;;;;;0.70;0.57;;;6.50;54.40;;;;;;2042879;28;20743;-68
2023/12/25 05:19:30;;;;;;;0.40;0.40;;;6.50;54.90;;;;;;2041807;28;20662;-68
2023/12/25 05:20:31;;;;;;;0.77;0.50;;;6.40;54.40;;;;;;2051314;28;20691;-68
2023/12/25 05:21:32;;;;;;;0.50;0.50;;;6.50;54.30;;;;;;2052692;28;20662;-68
2023/12/25 05:22:32;;;;;;;0.80;0.60;;;6.40;54.60;;;;;;2044922;28;20230;-68